createdAt,value
2019-05-07T00:00:32.885Z,5.19
2019-05-07T00:01:16.841Z,5.19
2019-05-07T00:01:56.271Z,5.19
2019-05-07T00:02:32.029Z,5.19
2019-05-07T00:03:04.821Z,5.12
2019-05-07T00:03:37.890Z,5.12
2019-05-07T00:04:12.917Z,5.12
2019-05-07T00:04:46.570Z,5.12
2019-05-07T00:05:19.964Z,5.06
2019-05-07T00:05:53.972Z,5.06
2019-05-07T00:06:27.215Z,5.06
2019-05-07T00:07:02.362Z,5.00
2019-05-07T00:07:35.309Z,5.00
2019-05-07T00:08:08.431Z,5.00
2019-05-07T00:08:44.411Z,5.00
2019-05-07T00:09:17.201Z,5.00
2019-05-07T00:09:52.391Z,4.94
2019-05-07T00:10:26.308Z,4.94
2019-05-07T00:11:02.122Z,4.94
2019-05-07T00:11:34.561Z,4.87
2019-05-07T00:12:07.746Z,4.94
2019-05-07T00:12:43.013Z,4.94
2019-05-07T00:13:15.797Z,4.87
2019-05-07T00:13:48.801Z,4.87
2019-05-07T00:14:23.110Z,4.87
2019-05-07T00:15:00.870Z,4.87
2019-05-07T00:15:32.831Z,4.87
2019-05-07T00:16:06.028Z,4.87
2019-05-07T00:16:42.130Z,4.87
2019-05-07T00:17:14.988Z,4.81
2019-05-07T00:17:47.879Z,4.81
2019-05-07T00:18:22.998Z,4.81
2019-05-07T00:18:55.693Z,4.81
2019-05-07T00:19:28.719Z,4.81
2019-05-07T00:20:02.342Z,4.81
2019-05-07T00:20:35.503Z,4.81
2019-05-07T00:21:08.735Z,4.81
2019-05-07T00:21:42.335Z,4.81
2019-05-07T00:22:15.727Z,4.81
2019-05-07T00:22:48.612Z,4.81
2019-05-07T00:23:23.217Z,4.81
2019-05-07T00:23:56.435Z,4.81
2019-05-07T00:24:29.400Z,4.81
2019-05-07T00:25:03.090Z,4.81
2019-05-07T00:25:36.367Z,4.81
2019-05-07T00:26:09.487Z,4.81
2019-05-07T00:26:43.146Z,4.87
2019-05-07T00:27:16.297Z,4.87
2019-05-07T00:27:49.199Z,4.87
2019-05-07T00:28:23.410Z,4.87
2019-05-07T00:28:56.637Z,4.87
2019-05-07T00:29:32.153Z,4.94
2019-05-07T00:30:05.777Z,4.94
2019-05-07T00:30:38.759Z,4.94
2019-05-07T00:31:12.417Z,4.94
2019-05-07T00:31:45.755Z,4.94
2019-05-07T00:32:18.851Z,4.94
2019-05-07T00:32:53.073Z,4.94
2019-05-07T00:33:26.275Z,5.00
2019-05-07T00:33:59.449Z,5.00
2019-05-07T00:34:38.573Z,5.00
2019-05-07T00:35:14.628Z,5.00
2019-05-07T00:36:02.597Z,5.00
2019-05-07T00:36:42.120Z,5.00
2019-05-07T00:37:43.711Z,5.00
2019-05-07T00:38:22.334Z,5.06
2019-05-07T00:39:03.905Z,5.00
2019-05-07T00:40:06.272Z,5.00
2019-05-07T00:40:52.048Z,5.00
2019-05-07T00:41:40.024Z,5.00
2019-05-07T00:42:22.045Z,5.00
2019-05-07T00:43:15.014Z,5.00
2019-05-07T00:43:49.938Z,5.00
2019-05-07T00:44:22.862Z,5.00
2019-05-07T00:45:14.164Z,5.00
2019-05-07T00:46:02.287Z,5.00
2019-05-07T00:46:35.256Z,5.00
2019-05-07T00:47:08.271Z,5.00
2019-05-07T00:47:42.590Z,5.00
2019-05-07T00:48:15.624Z,5.00
2019-05-07T00:48:48.651Z,5.00
2019-05-07T00:49:23.215Z,5.00
2019-05-07T00:49:58.780Z,5.00
2019-05-07T00:50:33.455Z,4.94
2019-05-07T00:51:26.613Z,4.94
2019-05-07T00:51:59.651Z,4.94
2019-05-07T00:52:33.558Z,4.94
2019-05-07T00:53:08.017Z,4.94
2019-05-07T00:53:42.395Z,4.87
2019-05-07T00:54:15.491Z,4.87
2019-05-07T00:54:48.364Z,4.87
2019-05-07T00:55:22.755Z,4.87
2019-05-07T00:55:57.139Z,4.81
2019-05-07T00:56:30.151Z,4.81
2019-05-07T00:57:03.313Z,4.81
2019-05-07T00:57:36.409Z,4.81
2019-05-07T00:58:09.449Z,4.75
2019-05-07T00:58:42.905Z,4.75
2019-05-07T00:59:15.950Z,4.75
2019-05-07T00:59:48.949Z,4.75
2019-05-07T01:00:22.409Z,4.69
2019-05-07T01:00:55.319Z,4.69
2019-05-07T01:01:28.537Z,4.69
2019-05-07T01:02:02.874Z,4.69
2019-05-07T01:02:35.913Z,4.69
2019-05-07T01:03:08.927Z,4.62
2019-05-07T01:03:42.547Z,4.62
2019-05-07T01:04:15.599Z,4.62
2019-05-07T01:04:48.638Z,4.62
2019-05-07T01:05:23.054Z,4.62
2019-05-07T01:05:56.315Z,4.62
2019-05-07T01:06:29.237Z,4.62
2019-05-07T01:07:02.834Z,4.62
2019-05-07T01:07:35.949Z,4.62
2019-05-07T01:08:10.122Z,4.62
2019-05-07T01:08:43.177Z,4.56
2019-05-07T01:09:16.283Z,4.56
2019-05-07T01:09:49.289Z,4.62
2019-05-07T01:10:22.400Z,4.56
2019-05-07T01:10:55.218Z,4.56
2019-05-07T01:11:28.271Z,4.56
2019-05-07T01:12:03.117Z,4.56
2019-05-07T01:12:36.203Z,4.56
2019-05-07T01:13:09.109Z,4.56
2019-05-07T01:13:43.125Z,4.56
2019-05-07T01:14:16.176Z,4.56
2019-05-07T01:14:49.061Z,4.56
2019-05-07T01:15:30.659Z,4.56
2019-05-07T01:15:56.900Z,4.56
2019-05-07T01:16:30.010Z,4.56
2019-05-07T01:17:03.039Z,4.56
2019-05-07T01:17:35.993Z,4.56
2019-05-07T01:18:08.943Z,4.56
2019-05-07T01:18:42.230Z,4.56
2019-05-07T01:19:15.391Z,4.50
2019-05-07T01:19:48.383Z,4.50
2019-05-07T01:20:22.118Z,4.50
2019-05-07T01:20:55.431Z,4.50
2019-05-07T01:21:28.487Z,4.50
2019-05-07T01:22:03.214Z,4.50
2019-05-07T01:22:36.464Z,4.50
2019-05-07T01:23:13.412Z,4.50
2019-05-07T01:23:46.611Z,4.50
2019-05-07T01:24:23.257Z,4.50
2019-05-07T01:24:56.335Z,4.44
2019-05-07T01:25:29.239Z,4.44
2019-05-07T01:26:03.042Z,4.44
2019-05-07T01:26:36.081Z,4.44
2019-05-07T01:27:09.139Z,4.44
2019-05-07T01:27:42.691Z,4.37
2019-05-07T01:28:16.022Z,4.37
2019-05-07T01:28:57.869Z,4.37
2019-05-07T01:29:32.806Z,4.37
2019-05-07T01:30:06.822Z,4.31
2019-05-07T01:30:39.851Z,4.31
2019-05-07T01:31:12.621Z,4.31
2019-05-07T01:32:03.091Z,4.31
2019-05-07T01:32:43.744Z,4.25
2019-05-07T01:33:36.427Z,4.25
2019-05-07T01:34:27.781Z,4.19
2019-05-07T01:35:12.839Z,4.19
2019-05-07T01:36:05.835Z,4.19
2019-05-07T01:36:38.788Z,4.19
2019-05-07T01:37:12.470Z,4.12
2019-05-07T01:37:45.673Z,4.12
2019-05-07T01:38:18.986Z,4.12
2019-05-07T01:38:52.316Z,4.12
2019-05-07T01:39:25.237Z,4.12
2019-05-07T01:39:58.189Z,4.12
2019-05-07T01:40:32.374Z,4.12
2019-05-07T01:41:05.489Z,4.12
2019-05-07T01:41:38.379Z,4.12
2019-05-07T01:42:12.741Z,4.12
2019-05-07T01:42:45.803Z,4.12
2019-05-07T01:43:18.802Z,4.12
2019-05-07T01:43:52.385Z,4.12
2019-05-07T01:44:25.467Z,4.12
2019-05-07T01:44:58.443Z,4.12
2019-05-07T01:45:43.259Z,4.12
2019-05-07T01:46:06.205Z,4.12
2019-05-07T01:46:39.225Z,4.12
2019-05-07T01:47:13.016Z,4.19
2019-05-07T01:47:46.344Z,4.12
2019-05-07T01:48:19.397Z,4.12
2019-05-07T01:48:56.991Z,4.12
2019-05-07T01:49:27.068Z,4.19
2019-05-07T01:50:02.797Z,4.12
2019-05-07T01:50:34.887Z,4.12
2019-05-07T01:51:07.930Z,4.12
2019-05-07T01:51:42.276Z,4.12
2019-05-07T01:52:15.477Z,4.12
2019-05-07T01:52:48.321Z,4.12
2019-05-07T01:53:22.747Z,4.12
2019-05-07T01:53:55.989Z,4.12
2019-05-07T01:54:28.941Z,4.12
2019-05-07T01:55:03.255Z,4.12
2019-05-07T01:55:36.413Z,4.12
2019-05-07T01:56:09.409Z,4.12
2019-05-07T01:56:42.828Z,4.12
2019-05-07T01:57:16.979Z,4.12
2019-05-07T01:57:52.254Z,4.12
2019-05-07T01:58:25.359Z,4.12
2019-05-07T01:58:58.431Z,4.12
2019-05-07T01:59:32.246Z,4.12
2019-05-07T02:00:06.825Z,4.12
2019-05-07T02:00:39.826Z,4.19
2019-05-07T02:01:13.205Z,4.19
2019-05-07T02:01:49.319Z,4.19
2019-05-07T02:02:29.165Z,4.19
2019-05-07T02:03:23.061Z,4.19
2019-05-07T02:04:18.968Z,4.19
2019-05-07T02:05:03.211Z,4.19
2019-05-07T02:05:53.477Z,4.19
2019-05-07T02:06:53.165Z,4.19
2019-05-07T02:07:54.819Z,4.19
2019-05-07T02:08:46.228Z,4.19
2019-05-07T02:09:34.013Z,4.19
2019-05-07T02:10:31.950Z,4.25
2019-05-07T02:11:05.504Z,4.25
2019-05-07T02:11:42.272Z,4.25
2019-05-07T02:12:22.202Z,4.25
2019-05-07T02:12:56.489Z,4.25
2019-05-07T02:13:29.331Z,4.25
2019-05-07T02:14:02.373Z,4.19
2019-05-07T02:14:35.370Z,4.19
2019-05-07T02:15:08.807Z,4.25
2019-05-07T02:15:42.827Z,4.19
2019-05-07T02:16:16.765Z,4.19
2019-05-07T02:16:49.735Z,4.19
2019-05-07T02:17:22.948Z,4.25
2019-05-07T02:17:56.006Z,4.25
2019-05-07T02:18:29.015Z,4.25
2019-05-07T02:19:02.265Z,4.25
2019-05-07T02:19:35.269Z,4.25
2019-05-07T02:20:08.905Z,4.25
2019-05-07T02:20:42.646Z,4.25
2019-05-07T02:21:15.805Z,4.31
2019-05-07T02:21:49.773Z,4.31
2019-05-07T02:22:22.957Z,4.25
2019-05-07T02:22:56.007Z,4.25
2019-05-07T02:23:29.225Z,4.25
2019-05-07T02:24:03.404Z,4.25
2019-05-07T02:24:36.697Z,4.25
2019-05-07T02:25:09.731Z,4.25
2019-05-07T02:25:42.833Z,4.25
2019-05-07T02:26:17.055Z,4.25
2019-05-07T02:26:52.113Z,4.31
2019-05-07T02:27:26.341Z,4.25
2019-05-07T02:27:59.497Z,4.25
2019-05-07T02:28:32.975Z,4.25
2019-05-07T02:29:06.275Z,4.31
2019-05-07T02:29:39.315Z,4.31
2019-05-07T02:30:14.827Z,4.25
2019-05-07T02:30:47.714Z,4.25
2019-05-07T02:31:23.109Z,4.25
2019-05-07T02:31:55.562Z,4.25
2019-05-07T02:32:28.576Z,4.31
2019-05-07T02:33:03.792Z,4.31
2019-05-07T02:33:36.427Z,4.31
2019-05-07T02:34:09.576Z,4.31
2019-05-07T02:34:44.144Z,4.37
2019-05-07T02:35:17.516Z,4.37
2019-05-07T02:35:53.242Z,4.37
2019-05-07T02:36:25.464Z,4.37
2019-05-07T02:36:58.874Z,4.37
2019-05-07T02:37:48.327Z,4.44
2019-05-07T02:38:23.050Z,4.44
2019-05-07T02:39:04.082Z,4.44
2019-05-07T02:40:04.464Z,4.50
2019-05-07T02:40:43.352Z,4.50
2019-05-07T02:41:23.173Z,4.50
2019-05-07T02:41:54.959Z,4.50
2019-05-07T02:42:28.205Z,4.56
2019-05-07T02:43:02.933Z,4.56
2019-05-07T02:43:36.167Z,4.56
2019-05-07T02:44:09.274Z,4.56
2019-05-07T02:45:04.104Z,4.62
2019-05-07T02:46:22.464Z,4.62
2019-05-07T02:47:00.178Z,4.62
2019-05-07T02:47:33.654Z,4.62
2019-05-07T02:48:06.780Z,4.62
2019-05-07T02:48:47.914Z,4.69
2019-05-07T02:49:28.200Z,4.69
2019-05-07T02:50:05.650Z,4.69
2019-05-07T02:50:48.950Z,4.69
2019-05-07T02:51:36.288Z,4.69
2019-05-07T02:52:16.109Z,4.69
2019-05-07T02:53:18.319Z,4.75
2019-05-07T02:54:03.583Z,4.75
2019-05-07T02:54:56.783Z,4.75
2019-05-07T02:55:34.361Z,4.75
2019-05-07T02:56:07.339Z,4.75
2019-05-07T02:56:43.025Z,4.81
2019-05-07T02:57:17.089Z,4.81
2019-05-07T02:57:54.072Z,4.81
2019-05-07T02:58:25.990Z,4.81
2019-05-07T02:58:59.022Z,4.81
2019-05-07T02:59:33.665Z,4.81
2019-05-07T03:00:07.226Z,4.81
2019-05-07T03:00:43.114Z,4.81
2019-05-07T03:01:15.204Z,4.81
2019-05-07T03:01:48.315Z,4.81
2019-05-07T03:02:24.150Z,4.81
2019-05-07T03:02:59.865Z,4.81
2019-05-07T03:03:33.511Z,4.81
2019-05-07T03:04:07.099Z,4.81
2019-05-07T03:04:40.161Z,4.87
2019-05-07T03:05:13.866Z,4.81
2019-05-07T03:05:46.976Z,4.87
2019-05-07T03:06:23.055Z,4.81
2019-05-07T03:06:55.063Z,4.81
2019-05-07T03:07:28.190Z,4.81
2019-05-07T03:08:03.489Z,4.81
2019-05-07T03:08:36.772Z,4.81
2019-05-07T03:09:09.777Z,4.81
2019-05-07T03:09:44.274Z,4.87
2019-05-07T03:10:17.308Z,4.87
2019-05-07T03:10:52.755Z,4.87
2019-05-07T03:11:25.444Z,4.87
2019-05-07T03:11:58.471Z,4.87
2019-05-07T03:12:33.502Z,4.87
2019-05-07T03:13:06.720Z,4.87
2019-05-07T03:13:39.793Z,4.87
2019-05-07T03:14:13.923Z,4.87
2019-05-07T03:14:47.379Z,4.87
2019-05-07T03:15:23.834Z,4.87
2019-05-07T03:15:55.493Z,4.87
2019-05-07T03:16:39.811Z,4.87
2019-05-07T03:17:03.820Z,4.87
2019-05-07T03:17:36.981Z,4.87
2019-05-07T03:18:13.898Z,4.87
2019-05-07T03:18:46.032Z,4.87
2019-05-07T03:19:19.088Z,4.87
2019-05-07T03:19:53.460Z,4.87
2019-05-07T03:20:33.609Z,4.87
2019-05-07T03:21:12.793Z,4.87
2019-05-07T03:21:55.555Z,4.94
2019-05-07T03:22:28.695Z,4.94
2019-05-07T03:23:03.174Z,4.94
2019-05-07T03:23:44.451Z,4.94
2019-05-07T03:24:26.161Z,4.94
2019-05-07T03:25:04.346Z,4.94
2019-05-07T03:25:55.822Z,4.94
2019-05-07T03:26:34.149Z,4.94
2019-05-07T03:27:07.417Z,4.94
2019-05-07T03:27:43.072Z,4.94
2019-05-07T03:28:15.208Z,4.94
2019-05-07T03:29:04.036Z,4.94
2019-05-07T03:29:38.257Z,4.94
2019-05-07T03:30:35.767Z,4.94
2019-05-07T03:31:17.176Z,4.94
2019-05-07T03:31:56.199Z,5.00
2019-05-07T03:32:47.654Z,5.00
2019-05-07T03:33:27.005Z,5.00
2019-05-07T03:34:07.372Z,5.00
2019-05-07T03:34:59.336Z,5.00
2019-05-07T03:35:37.940Z,5.00
2019-05-07T03:36:16.482Z,5.06
2019-05-07T03:36:49.170Z,5.06
2019-05-07T03:37:25.054Z,5.06
2019-05-07T03:37:58.263Z,5.06
2019-05-07T03:38:33.498Z,5.06
2019-05-07T03:39:06.765Z,5.06
2019-05-07T03:39:42.949Z,5.06
2019-05-07T03:40:14.991Z,5.06
2019-05-07T03:40:48.032Z,5.06
2019-05-07T03:41:26.070Z,5.06
2019-05-07T03:41:59.074Z,5.06
2019-05-07T03:42:33.642Z,5.06
2019-05-07T03:43:08.105Z,5.06
2019-05-07T03:43:43.413Z,5.06
2019-05-07T03:44:24.549Z,5.12
2019-05-07T03:45:13.824Z,5.12
2019-05-07T03:46:03.728Z,5.12
2019-05-07T03:46:53.175Z,5.12
2019-05-07T03:47:16.521Z,5.12
2019-05-07T03:48:13.827Z,5.12
2019-05-07T03:48:47.236Z,5.12
2019-05-07T03:49:34.168Z,5.12
2019-05-07T03:50:09.775Z,5.19
2019-05-07T03:50:43.554Z,5.19
2019-05-07T03:51:16.751Z,5.19
2019-05-07T03:51:52.877Z,5.19
2019-05-07T03:52:24.806Z,5.19
2019-05-07T03:52:57.859Z,5.19
2019-05-07T03:53:33.544Z,5.19
2019-05-07T03:54:05.871Z,5.19
2019-05-07T03:54:38.929Z,5.19
2019-05-07T03:55:14.527Z,5.19
2019-05-07T03:55:47.273Z,5.19
2019-05-07T03:56:23.686Z,5.25
2019-05-07T03:57:00.990Z,5.25
2019-05-07T03:57:33.345Z,5.25
2019-05-07T03:58:06.789Z,5.25
2019-05-07T03:58:42.858Z,5.25
2019-05-07T03:59:14.865Z,5.25
2019-05-07T03:59:47.964Z,5.25
2019-05-07T04:00:23.925Z,5.25
2019-05-07T04:00:55.822Z,5.25
2019-05-07T04:01:28.773Z,5.31
2019-05-07T04:02:03.367Z,5.31
2019-05-07T04:02:36.749Z,5.31
2019-05-07T04:03:19.282Z,5.31
2019-05-07T04:03:53.279Z,5.31
2019-05-07T04:04:26.582Z,5.31
2019-05-07T04:04:59.407Z,5.31
2019-05-07T04:05:34.137Z,5.31
2019-05-07T04:06:07.429Z,5.31
2019-05-07T04:06:43.372Z,5.37
2019-05-07T04:07:15.241Z,5.37
2019-05-07T04:07:48.136Z,5.37
2019-05-07T04:08:23.609Z,5.37
2019-05-07T04:08:56.210Z,5.37
2019-05-07T04:09:29.360Z,5.37
2019-05-07T04:10:04.413Z,5.37
2019-05-07T04:10:37.907Z,5.37
2019-05-07T04:11:13.942Z,5.37
2019-05-07T04:11:46.699Z,5.37
2019-05-07T04:12:19.848Z,5.37
2019-05-07T04:12:53.903Z,5.44
2019-05-07T04:13:27.623Z,5.44
2019-05-07T04:14:02.681Z,5.44
2019-05-07T04:14:35.746Z,5.44
2019-05-07T04:15:08.935Z,5.44
2019-05-07T04:15:43.822Z,5.44
2019-05-07T04:16:16.914Z,5.44
2019-05-07T04:16:53.185Z,5.44
2019-05-07T04:17:27.116Z,5.44
2019-05-07T04:18:03.696Z,5.44
2019-05-07T04:18:36.168Z,5.44
2019-05-07T04:19:09.112Z,5.44
2019-05-07T04:19:44.125Z,5.50
2019-05-07T04:20:17.084Z,5.50
2019-05-07T04:20:50.052Z,5.50
2019-05-07T04:21:23.317Z,5.50
2019-05-07T04:21:56.444Z,5.50
2019-05-07T04:22:29.571Z,5.50
2019-05-07T04:23:04.316Z,5.50
2019-05-07T04:23:37.365Z,5.50
2019-05-07T04:24:17.550Z,5.50
2019-05-07T04:25:17.590Z,5.50
2019-05-07T04:25:59.998Z,5.56
2019-05-07T04:26:42.805Z,5.56
2019-05-07T04:27:23.812Z,5.56
2019-05-07T04:28:13.896Z,5.62
2019-05-07T04:29:05.505Z,5.62
2019-05-07T04:29:38.597Z,5.62
2019-05-07T04:30:12.930Z,5.62
2019-05-07T04:30:46.248Z,5.62
2019-05-07T04:31:19.304Z,5.69
2019-05-07T04:31:53.323Z,5.69
2019-05-07T04:32:33.633Z,5.69
2019-05-07T04:33:07.863Z,5.69
2019-05-07T04:33:44.022Z,5.69
2019-05-07T04:34:25.911Z,5.69
2019-05-07T04:35:06.670Z,5.69
2019-05-07T04:36:07.525Z,5.69
2019-05-07T04:36:44.052Z,5.69
2019-05-07T04:37:17.311Z,5.69
2019-05-07T04:37:53.133Z,5.69
2019-05-07T04:38:25.111Z,5.75
2019-05-07T04:38:58.154Z,5.75
2019-05-07T04:39:33.495Z,5.75
2019-05-07T04:40:06.057Z,5.75
2019-05-07T04:40:39.096Z,5.75
2019-05-07T04:41:13.774Z,5.75
2019-05-07T04:41:47.087Z,5.75
2019-05-07T04:42:24.053Z,5.75
2019-05-07T04:42:55.903Z,5.75
2019-05-07T04:43:28.841Z,5.81
2019-05-07T04:44:03.568Z,5.81
2019-05-07T04:44:38.223Z,5.81
2019-05-07T04:45:13.570Z,5.81
2019-05-07T04:45:46.445Z,5.81
2019-05-07T04:46:23.299Z,5.81
2019-05-07T04:46:55.194Z,5.81
2019-05-07T04:47:38.769Z,5.81
2019-05-07T04:48:15.011Z,5.81
2019-05-07T04:48:48.096Z,5.81
2019-05-07T04:49:23.737Z,5.81
2019-05-07T04:49:55.960Z,5.81
2019-05-07T04:50:39.263Z,5.81
2019-05-07T04:51:07.377Z,5.81
2019-05-07T04:51:52.690Z,5.81
2019-05-07T04:52:33.553Z,5.87
2019-05-07T04:53:05.895Z,5.87
2019-05-07T04:53:38.914Z,5.87
2019-05-07T04:54:13.185Z,5.87
2019-05-07T04:54:46.422Z,5.87
2019-05-07T04:55:22.730Z,5.87
2019-05-07T04:55:54.268Z,5.87
2019-05-07T04:56:27.331Z,5.87
2019-05-07T04:57:03.447Z,5.94
2019-05-07T04:57:35.323Z,5.94
2019-05-07T04:58:09.003Z,5.94
2019-05-07T04:58:43.377Z,5.94
2019-05-07T04:59:16.495Z,5.94
2019-05-07T04:59:49.469Z,5.94
2019-05-07T05:00:23.044Z,5.94
2019-05-07T05:00:56.315Z,5.94
2019-05-07T05:01:32.896Z,6.00
2019-05-07T05:02:13.869Z,6.00
2019-05-07T05:03:03.167Z,6.00
2019-05-07T05:03:39.016Z,6.00
2019-05-07T05:04:25.804Z,6.06
2019-05-07T05:04:45.046Z,6.06
2019-05-07T05:05:18.619Z,6.06
2019-05-07T05:05:53.243Z,6.06
2019-05-07T05:06:26.534Z,6.06
2019-05-07T05:07:01.993Z,6.06
2019-05-07T05:07:34.375Z,6.06
2019-05-07T05:08:07.322Z,6.12
2019-05-07T05:08:40.210Z,6.12
2019-05-07T05:09:13.211Z,6.12
2019-05-07T05:09:46.193Z,6.12
2019-05-07T05:10:19.254Z,6.12
2019-05-07T05:10:53.671Z,6.12
2019-05-07T05:11:28.342Z,6.19
2019-05-07T05:12:02.684Z,6.19
2019-05-07T05:12:35.994Z,6.19
2019-05-07T05:13:08.969Z,6.19
2019-05-07T05:13:44.484Z,6.19
2019-05-07T05:14:17.264Z,6.19
2019-05-07T05:14:52.330Z,6.19
2019-05-07T05:15:25.247Z,6.25
2019-05-07T05:16:02.027Z,6.25
2019-05-07T05:16:35.141Z,6.25
2019-05-07T05:17:08.314Z,6.25
2019-05-07T05:17:50.012Z,6.25
2019-05-07T05:18:21.894Z,6.25
2019-05-07T05:18:56.180Z,6.31
2019-05-07T05:19:32.374Z,6.25
2019-05-07T05:20:06.289Z,6.31
2019-05-07T05:20:48.599Z,6.31
2019-05-07T05:21:32.232Z,6.31
2019-05-07T05:22:13.971Z,6.31
2019-05-07T05:23:12.880Z,6.31
2019-05-07T05:24:05.293Z,6.31
2019-05-07T05:24:42.509Z,6.31
2019-05-07T05:25:36.783Z,6.37
2019-05-07T05:26:09.787Z,6.37
2019-05-07T05:26:42.634Z,6.37
2019-05-07T05:27:15.529Z,6.37
2019-05-07T05:27:48.575Z,6.37
2019-05-07T05:28:21.985Z,6.37
2019-05-07T05:28:55.183Z,6.37
2019-05-07T05:29:28.079Z,6.37
2019-05-07T05:30:03.067Z,6.44
2019-05-07T05:30:46.577Z,6.44
2019-05-07T05:31:19.615Z,6.44
2019-05-07T05:31:52.934Z,6.44
2019-05-07T05:32:25.996Z,6.44
2019-05-07T05:33:01.340Z,6.44
2019-05-07T05:33:34.069Z,6.44
2019-05-07T05:34:07.149Z,6.50
2019-05-07T05:34:42.394Z,6.50
2019-05-07T05:35:14.988Z,6.50
2019-05-07T05:35:48.095Z,6.50
2019-05-07T05:36:22.174Z,6.50
2019-05-07T05:36:55.441Z,6.56
2019-05-07T05:37:28.754Z,6.56
2019-05-07T05:38:03.039Z,6.56
2019-05-07T05:38:36.236Z,6.62
2019-05-07T05:39:09.318Z,6.62
2019-05-07T05:39:42.809Z,6.62
2019-05-07T05:40:17.851Z,6.62
2019-05-07T05:40:52.176Z,6.62
2019-05-07T05:41:28.690Z,6.69
2019-05-07T05:42:12.156Z,6.69
2019-05-07T05:42:52.530Z,6.69
2019-05-07T05:43:57.573Z,6.69
2019-05-07T05:44:32.292Z,6.75
2019-05-07T05:45:27.094Z,6.75
2019-05-07T05:46:02.714Z,6.75
2019-05-07T05:46:36.011Z,6.75
2019-05-07T05:47:08.789Z,6.75
2019-05-07T05:47:44.822Z,6.75
2019-05-07T05:48:16.989Z,6.75
2019-05-07T05:48:52.020Z,6.75
2019-05-07T05:49:25.045Z,6.75
2019-05-07T05:49:58.405Z,6.75
2019-05-07T05:50:36.649Z,6.75
2019-05-07T05:51:22.907Z,6.75
2019-05-07T05:52:04.017Z,6.75
2019-05-07T05:52:44.402Z,6.75
2019-05-07T05:53:52.277Z,6.75
2019-05-07T05:54:33.481Z,6.81
2019-05-07T05:55:12.581Z,6.81
2019-05-07T05:55:45.891Z,6.81
2019-05-07T05:56:24.775Z,6.81
2019-05-07T05:57:05.395Z,6.87
2019-05-07T05:57:53.129Z,6.87
2019-05-07T05:58:43.109Z,6.87
2019-05-07T05:59:32.496Z,6.94
2019-05-07T06:00:16.275Z,7.00
2019-05-07T06:01:09.806Z,7.06
2019-05-07T06:02:17.753Z,7.06
2019-05-07T06:03:11.937Z,7.19
2019-05-07T06:04:03.399Z,7.25
2019-05-07T06:05:08.297Z,7.31
2019-05-07T06:06:01.968Z,7.37
2019-05-07T06:07:08.794Z,7.44
2019-05-07T06:07:42.763Z,7.44
2019-05-07T06:08:34.051Z,7.44
2019-05-07T06:09:21.850Z,7.50
2019-05-07T06:10:13.201Z,7.50
2019-05-07T06:10:58.837Z,7.56
2019-05-07T06:11:48.739Z,7.56
2019-05-07T06:12:42.859Z,7.56
2019-05-07T06:13:23.174Z,7.56
2019-05-07T06:14:04.217Z,7.56
2019-05-07T06:14:42.600Z,7.56
2019-05-07T06:15:35.377Z,7.56
2019-05-07T06:16:17.247Z,7.56
2019-05-07T06:17:02.148Z,7.62
2019-05-07T06:17:56.233Z,7.62
2019-05-07T06:19:04.297Z,7.62
2019-05-07T06:19:45.803Z,7.62
2019-05-07T06:20:34.968Z,7.69
2019-05-07T06:21:24.306Z,7.69
2019-05-07T06:22:06.010Z,7.69
2019-05-07T06:22:57.067Z,7.69
2019-05-07T06:23:49.593Z,7.75
2019-05-07T06:24:48.422Z,7.75
2019-05-07T06:25:24.820Z,7.81
2019-05-07T06:25:57.442Z,7.81
2019-05-07T06:26:31.902Z,7.81
2019-05-07T06:27:05.358Z,7.87
2019-05-07T06:27:38.433Z,7.87
2019-05-07T06:28:12.672Z,7.87
2019-05-07T06:28:45.976Z,7.87
2019-05-07T06:29:20.130Z,7.87
2019-05-07T06:29:54.004Z,7.94
2019-05-07T06:30:27.002Z,7.94
2019-05-07T06:31:02.103Z,7.94
2019-05-07T06:31:34.971Z,7.94
2019-05-07T06:32:09.135Z,7.94
2019-05-07T06:32:42.989Z,8.00
2019-05-07T06:33:16.640Z,8.00
2019-05-07T06:33:49.694Z,8.00
2019-05-07T06:34:22.690Z,8.06
2019-05-07T06:34:55.665Z,8.06
2019-05-07T06:35:28.660Z,8.13
2019-05-07T06:36:02.817Z,8.13
2019-05-07T06:36:37.804Z,8.19
2019-05-07T06:37:11.838Z,8.19
2019-05-07T06:37:45.742Z,8.19
2019-05-07T06:38:18.836Z,8.25
2019-05-07T06:39:03.231Z,8.25
2019-05-07T06:39:44.615Z,8.25
2019-05-07T06:40:38.326Z,8.31
2019-05-07T06:41:43.155Z,8.31
2019-05-07T06:42:33.276Z,8.38
2019-05-07T06:43:13.420Z,8.44
2019-05-07T06:43:52.106Z,8.50
2019-05-07T06:44:25.354Z,8.50
2019-05-07T06:45:15.990Z,8.56
2019-05-07T06:45:51.974Z,8.63
2019-05-07T06:46:26.037Z,8.69
2019-05-07T06:46:59.020Z,8.69
2019-05-07T06:47:32.063Z,8.69
2019-05-07T06:48:05.141Z,8.69
2019-05-07T06:48:42.865Z,8.75
2019-05-07T06:49:13.075Z,8.75
2019-05-07T06:49:46.006Z,8.81
2019-05-07T06:50:19.264Z,8.88
2019-05-07T06:50:55.778Z,8.94
2019-05-07T06:51:28.934Z,9.00
2019-05-07T06:52:03.064Z,9.00
2019-05-07T06:52:36.348Z,9.00
2019-05-07T06:53:11.944Z,9.00
2019-05-07T06:53:45.418Z,9.06
2019-05-07T06:54:18.297Z,9.13
2019-05-07T06:54:52.360Z,9.13
2019-05-07T06:55:26.284Z,9.13
2019-05-07T06:56:02.930Z,9.19
2019-05-07T06:56:35.732Z,9.19
2019-05-07T06:57:08.868Z,9.25
2019-05-07T06:57:43.400Z,9.19
2019-05-07T06:58:17.431Z,9.25
2019-05-07T06:59:06.538Z,9.19
2019-05-07T06:59:46.605Z,9.25
2019-05-07T07:00:42.336Z,9.25
2019-05-07T07:01:33.616Z,9.25
2019-05-07T07:02:26.033Z,9.31
2019-05-07T07:03:08.744Z,9.38
2019-05-07T07:04:17.538Z,9.38
2019-05-07T07:05:04.892Z,9.50
2019-05-07T07:05:57.216Z,9.50
2019-05-07T07:06:35.600Z,9.56
2019-05-07T07:07:27.456Z,9.56
2019-05-07T07:07:59.370Z,9.56
2019-05-07T07:08:48.408Z,9.56
2019-05-07T07:09:27.950Z,9.56
2019-05-07T07:10:26.504Z,9.63
2019-05-07T07:11:05.836Z,9.69
2019-05-07T07:11:44.557Z,9.69
2019-05-07T07:12:22.303Z,9.69
2019-05-07T07:12:55.084Z,9.75
2019-05-07T07:13:28.221Z,9.75
2019-05-07T07:14:02.607Z,9.81
2019-05-07T07:14:36.160Z,9.88
2019-05-07T07:15:09.390Z,9.94
2019-05-07T07:15:42.780Z,10.00
2019-05-07T07:16:15.866Z,10.00
2019-05-07T07:16:48.932Z,10.06
2019-05-07T07:17:22.407Z,10.13
2019-05-07T07:17:55.671Z,10.19
2019-05-07T07:18:28.737Z,10.25
2019-05-07T07:19:03.324Z,10.31
2019-05-07T07:19:36.474Z,10.44
2019-05-07T07:20:09.998Z,10.56
2019-05-07T07:20:43.284Z,10.69
2019-05-07T07:21:16.455Z,10.75
2019-05-07T07:21:49.562Z,10.81
2019-05-07T07:22:22.561Z,10.94
2019-05-07T07:22:55.648Z,11.00
2019-05-07T07:23:28.636Z,11.06
2019-05-07T07:24:03.003Z,11.12
2019-05-07T07:24:36.224Z,11.25
2019-05-07T07:25:11.883Z,11.38
2019-05-07T07:25:44.964Z,11.50
2019-05-07T07:26:18.026Z,11.56
2019-05-07T07:26:52.822Z,11.69
2019-05-07T07:27:26.019Z,11.75
2019-05-07T07:27:58.981Z,11.81
2019-05-07T07:28:32.819Z,11.81
2019-05-07T07:29:06.971Z,11.81
2019-05-07T07:29:45.063Z,11.81
2019-05-07T07:30:42.040Z,11.75
2019-05-07T07:31:28.480Z,11.69
2019-05-07T07:32:03.564Z,11.63
2019-05-07T07:32:37.220Z,11.56
2019-05-07T07:33:12.119Z,11.50
2019-05-07T07:33:45.586Z,11.44
2019-05-07T07:34:22.764Z,11.44
2019-05-07T07:34:55.880Z,11.38
2019-05-07T07:35:29.142Z,11.31
2019-05-07T07:36:02.604Z,11.31
2019-05-07T07:36:42.548Z,11.31
2019-05-07T07:37:32.224Z,11.31
2019-05-07T07:38:23.718Z,11.25
2019-05-07T07:38:56.805Z,11.12
2019-05-07T07:39:29.861Z,11.06
2019-05-07T07:40:18.588Z,11.06
2019-05-07T07:41:02.098Z,10.94
2019-05-07T07:41:42.608Z,10.88
2019-05-07T07:42:15.681Z,10.88
2019-05-07T07:42:48.600Z,10.81
2019-05-07T07:43:21.915Z,10.81
2019-05-07T07:43:54.901Z,10.75
2019-05-07T07:44:28.000Z,10.75
2019-05-07T07:45:14.784Z,10.69
2019-05-07T07:45:47.849Z,10.69
2019-05-07T07:46:22.117Z,10.69
2019-05-07T07:46:55.730Z,10.69
2019-05-07T07:47:28.730Z,10.63
2019-05-07T07:48:02.418Z,10.63
2019-05-07T07:48:35.374Z,10.56
2019-05-07T07:49:13.964Z,10.50
2019-05-07T07:49:44.668Z,10.44
2019-05-07T07:50:18.150Z,10.31
2019-05-07T07:50:52.432Z,10.25
2019-05-07T07:51:38.023Z,10.13
2019-05-07T07:52:02.999Z,10.06
2019-05-07T07:52:35.378Z,10.06
2019-05-07T07:53:08.492Z,10.00
2019-05-07T07:53:42.515Z,9.94
2019-05-07T07:54:15.658Z,9.88
2019-05-07T07:54:50.272Z,9.88
2019-05-07T07:55:47.316Z,9.81
2019-05-07T07:56:45.376Z,9.81
2019-05-07T07:57:16.616Z,9.88
2019-05-07T07:58:15.221Z,9.81
2019-05-07T07:58:55.520Z,9.81
2019-05-07T07:59:48.278Z,9.81
2019-05-07T08:00:36.072Z,9.75
2019-05-07T08:01:17.254Z,9.75
2019-05-07T08:02:25.250Z,9.81
2019-05-07T08:03:02.277Z,9.81
2019-05-07T08:03:35.478Z,9.81
2019-05-07T08:04:08.972Z,9.88
2019-05-07T08:04:42.611Z,9.94
2019-05-07T08:05:15.832Z,9.94
2019-05-07T08:05:48.997Z,10.00
2019-05-07T08:06:22.614Z,10.06
2019-05-07T08:07:04.524Z,10.13
2019-05-07T08:07:37.650Z,10.19
2019-05-07T08:08:12.657Z,10.25
2019-05-07T08:08:45.650Z,10.31
2019-05-07T08:09:18.718Z,10.31
2019-05-07T08:09:52.082Z,10.31
2019-05-07T08:10:25.322Z,10.31
2019-05-07T08:10:59.542Z,10.31
2019-05-07T08:11:32.736Z,10.25
2019-05-07T08:12:07.547Z,10.19